createdAt,value
2023-05-14T00:00:40.228Z,84.78
2023-05-14T00:03:06.826Z,84.19
2023-05-14T00:05:33.350Z,83.31
2023-05-14T00:07:59.649Z,83.67
2023-05-14T00:10:27.246Z,84.52
2023-05-14T00:12:53.761Z,84.22
2023-05-14T00:15:20.056Z,83.57
2023-05-14T00:17:46.500Z,83.27
2023-05-14T00:20:12.948Z,83.31
2023-05-14T00:22:39.696Z,83.83
2023-05-14T00:25:07.897Z,84.19
2023-05-14T00:27:34.729Z,85.05
2023-05-14T00:30:01.101Z,85.60
2023-05-14T00:32:27.457Z,86.29
2023-05-14T00:34:53.766Z,85.68
2023-05-14T00:37:20.130Z,84.64
2023-05-14T00:39:46.444Z,83.75
2023-05-14T00:42:12.774Z,83.23
2023-05-14T00:44:39.083Z,82.30
2023-05-14T00:47:05.877Z,82.98
2023-05-14T00:49:32.301Z,83.63
2023-05-14T00:51:58.927Z,84.00
2023-05-14T00:54:25.492Z,84.61
2023-05-14T00:56:52.757Z,83.69
2023-05-14T00:59:19.047Z,83.18
2023-05-14T01:01:45.420Z,83.16
2023-05-14T01:04:12.377Z,83.31
2023-05-14T01:07:07.618Z,84.46
2023-05-14T01:09:49.978Z,82.84
2023-05-14T01:12:21.998Z,83.52
2023-05-14T01:14:55.011Z,83.12
2023-05-14T01:17:24.956Z,83.44
2023-05-14T01:19:51.429Z,82.86
2023-05-14T01:22:17.728Z,81.73
2023-05-14T01:24:44.042Z,81.28
2023-05-14T01:27:18.064Z,81.94
2023-05-14T01:29:53.163Z,83.68
2023-05-14T01:32:20.828Z,85.69
2023-05-14T01:34:48.465Z,86.89
2023-05-14T01:37:15.896Z,87.81
2023-05-14T01:39:42.910Z,88.16
2023-05-14T01:42:10.184Z,89.30
2023-05-14T01:44:36.488Z,90.03
2023-05-14T01:47:02.804Z,90.34
2023-05-14T01:49:29.100Z,90.98
2023-05-14T01:51:55.406Z,89.98
2023-05-14T01:54:21.696Z,88.70
2023-05-14T01:56:48.000Z,88.59
2023-05-14T01:59:14.297Z,90.13
2023-05-14T02:01:40.645Z,91.42
2023-05-14T02:04:06.957Z,90.38
2023-05-14T02:06:33.319Z,89.26
2023-05-14T02:09:00.319Z,89.01
2023-05-14T02:11:26.633Z,91.01
2023-05-14T02:13:52.980Z,89.92
2023-05-14T02:16:19.348Z,88.71
2023-05-14T02:18:45.756Z,88.50
2023-05-14T02:21:12.137Z,89.07
2023-05-14T02:23:41.976Z,88.65
2023-05-14T02:26:09.758Z,87.82
2023-05-14T02:28:36.199Z,87.37
2023-05-14T02:31:02.538Z,87.54
2023-05-14T02:33:28.947Z,87.70
2023-05-14T02:35:55.278Z,86.91
2023-05-14T02:38:22.447Z,87.53
2023-05-14T02:40:48.818Z,88.00
2023-05-14T02:43:15.135Z,87.65
2023-05-14T02:45:41.436Z,87.57
2023-05-14T02:48:07.842Z,88.26
2023-05-14T02:50:34.189Z,88.50
2023-05-14T02:53:00.489Z,89.19
2023-05-14T02:55:26.848Z,90.32
2023-05-14T02:57:53.181Z,90.56
2023-05-14T03:00:19.851Z,90.60
2023-05-14T03:02:46.538Z,91.71
2023-05-14T03:05:13.211Z,92.38
2023-05-14T03:07:39.543Z,92.34
2023-05-14T03:10:06.364Z,91.43
2023-05-14T03:12:32.669Z,91.84
2023-05-14T03:14:58.993Z,92.25
2023-05-14T03:17:25.327Z,92.68
2023-05-14T03:19:51.735Z,93.79
2023-05-14T03:22:18.124Z,93.94
2023-05-14T03:24:44.437Z,94.15
2023-05-14T03:27:10.745Z,94.03
2023-05-14T03:29:37.063Z,94.43
2023-05-14T03:32:03.596Z,95.30
2023-05-14T03:34:29.980Z,96.18
2023-05-14T03:36:56.291Z,96.61
2023-05-14T03:39:22.607Z,96.22
2023-05-14T03:41:49.125Z,95.96
2023-05-14T03:44:15.434Z,96.17
2023-05-14T03:46:41.767Z,96.51
2023-05-14T03:49:08.181Z,96.32
2023-05-14T03:51:34.538Z,96.09
2023-05-14T03:54:01.353Z,96.22
2023-05-14T03:56:27.659Z,96.13
2023-05-14T03:58:53.970Z,95.21
2023-05-14T04:01:20.267Z,94.91
2023-05-14T04:03:46.710Z,94.27
2023-05-14T04:06:13.187Z,93.77
2023-05-14T04:08:39.504Z,93.82
2023-05-14T04:11:05.959Z,93.48
2023-05-14T04:13:32.266Z,93.04
2023-05-14T04:15:58.574Z,92.94
2023-05-14T04:18:25.216Z,92.79
2023-05-14T04:20:51.541Z,92.24
2023-05-14T04:23:17.873Z,91.58
2023-05-14T04:25:44.178Z,91.49
2023-05-14T04:28:10.483Z,90.70
2023-05-14T04:30:36.792Z,90.52
2023-05-14T04:33:03.247Z,90.03
2023-05-14T04:35:29.642Z,89.57
2023-05-14T04:37:55.969Z,88.50
2023-05-14T04:40:22.539Z,85.63
2023-05-14T04:42:49.093Z,82.88
2023-05-14T04:45:15.534Z,81.02
2023-05-14T04:47:42.270Z,78.98
2023-05-14T04:50:09.540Z,78.60
2023-05-14T04:52:36.037Z,76.86
2023-05-14T04:55:02.323Z,77.04
2023-05-14T04:57:28.652Z,77.80
2023-05-14T04:59:54.969Z,76.88
2023-05-14T05:02:21.303Z,76.45
2023-05-14T05:04:47.604Z,76.88
2023-05-14T05:07:13.946Z,76.82
2023-05-14T05:09:40.511Z,76.60
2023-05-14T05:12:07.173Z,76.31
2023-05-14T05:14:33.510Z,76.99
2023-05-14T05:16:59.837Z,73.91
2023-05-14T05:19:35.921Z,72.00
2023-05-14T05:22:06.481Z,69.88
2023-05-14T05:24:32.783Z,68.51
2023-05-14T05:26:59.100Z,67.82
2023-05-14T05:29:25.401Z,67.54
2023-05-14T05:31:51.808Z,65.85
2023-05-14T05:34:18.263Z,64.73
2023-05-14T05:36:44.574Z,64.99
2023-05-14T05:39:10.885Z,64.34
2023-05-14T05:41:37.193Z,63.56
2023-05-14T05:44:03.516Z,62.29
2023-05-14T05:46:29.922Z,60.75
2023-05-14T05:48:56.346Z,60.97
2023-05-14T05:51:22.826Z,60.33
2023-05-14T05:53:49.142Z,59.02
2023-05-14T05:56:15.463Z,54.94
2023-05-14T05:58:41.758Z,52.35
2023-05-14T06:01:08.095Z,52.02
2023-05-14T06:03:34.412Z,52.92
2023-05-14T06:06:00.744Z,54.48
2023-05-14T06:08:27.058Z,53.75
2023-05-14T06:10:53.348Z,52.93
2023-05-14T06:13:19.724Z,51.98
2023-05-14T06:15:46.020Z,51.94
2023-05-14T06:18:12.343Z,49.61
2023-05-14T06:20:38.650Z,47.59
2023-05-14T06:23:04.993Z,45.08
2023-05-14T06:25:31.316Z,44.86
2023-05-14T06:27:57.643Z,44.01
2023-05-14T06:30:24.117Z,46.36
2023-05-14T06:32:50.670Z,46.73
2023-05-14T06:35:18.074Z,47.24
2023-05-14T06:37:45.046Z,45.86
2023-05-14T06:40:12.434Z,47.20
2023-05-14T06:42:38.734Z,48.10
2023-05-14T06:45:06.228Z,50.20
2023-05-14T06:47:32.588Z,51.39
2023-05-14T06:49:59.050Z,52.39
2023-05-14T06:52:25.720Z,53.66
2023-05-14T06:54:52.055Z,53.83
2023-05-14T06:57:18.352Z,54.81
2023-05-14T06:59:44.696Z,56.27
2023-05-14T07:02:11.059Z,56.89
2023-05-14T07:04:37.404Z,58.75
2023-05-14T07:07:03.952Z,59.33
2023-05-14T07:09:30.263Z,59.53
2023-05-14T07:11:56.581Z,59.26
2023-05-14T07:14:22.960Z,61.34
2023-05-14T07:16:49.322Z,61.24
2023-05-14T07:19:15.747Z,64.01
2023-05-14T07:21:42.074Z,63.82
2023-05-14T07:24:08.484Z,64.07
2023-05-14T07:26:34.854Z,65.45
2023-05-14T07:29:01.152Z,64.51
2023-05-14T07:31:27.548Z,65.38
2023-05-14T07:33:53.896Z,64.99
2023-05-14T07:36:20.817Z,65.04
2023-05-14T07:38:47.204Z,65.26
2023-05-14T07:41:13.516Z,64.64
2023-05-14T07:43:39.807Z,64.27
2023-05-14T07:46:06.191Z,64.49
2023-05-14T07:48:32.547Z,64.24
2023-05-14T07:50:58.878Z,64.38
2023-05-14T07:53:25.271Z,62.39
2023-05-14T07:55:51.637Z,60.76
2023-05-14T07:58:18.029Z,60.08
2023-05-14T08:00:44.371Z,60.93
2023-05-14T08:03:10.854Z,59.92
2023-05-14T08:05:37.311Z,59.84
2023-05-14T08:08:03.758Z,59.01
2023-05-14T08:10:30.320Z,59.90
2023-05-14T08:12:56.780Z,57.02
2023-05-14T08:15:24.580Z,55.78
2023-05-14T08:17:52.744Z,57.75
2023-05-14T08:20:19.262Z,56.14
2023-05-14T08:22:45.610Z,57.00
2023-05-14T08:25:12.070Z,53.57
2023-05-14T08:27:38.386Z,53.34
2023-05-14T08:30:05.248Z,51.25
2023-05-14T08:32:31.748Z,50.88
2023-05-14T08:34:58.111Z,49.52
2023-05-14T08:37:24.512Z,50.12
2023-05-14T08:39:50.807Z,48.92
2023-05-14T08:42:21.120Z,49.73
2023-05-14T08:45:00.000Z,50.28
2023-05-14T08:47:26.484Z,48.14
2023-05-14T08:49:58.472Z,49.05
2023-05-14T08:52:24.782Z,49.19
2023-05-14T08:54:52.857Z,46.57
2023-05-14T08:57:20.394Z,47.55
2023-05-14T08:59:46.906Z,48.21
2023-05-14T09:02:15.950Z,47.78
2023-05-14T09:04:42.548Z,48.79
2023-05-14T09:07:08.845Z,47.42
2023-05-14T09:09:35.229Z,48.76
2023-05-14T09:12:01.745Z,48.23
2023-05-14T09:14:28.098Z,47.25
2023-05-14T09:16:54.473Z,46.98
2023-05-14T09:19:21.180Z,45.19
2023-05-14T09:21:49.242Z,47.95
2023-05-14T09:24:23.312Z,46.87
2023-05-14T09:26:54.438Z,45.07
2023-05-14T09:29:20.838Z,45.96
2023-05-14T09:31:49.893Z,44.13
2023-05-14T09:34:26.041Z,47.38
2023-05-14T09:36:57.444Z,46.24
2023-05-14T09:39:25.217Z,45.09
2023-05-14T09:41:52.029Z,45.92
2023-05-14T09:44:19.396Z,45.90
2023-05-14T09:46:46.587Z,44.85
2023-05-14T09:49:13.317Z,44.89
2023-05-14T09:51:39.924Z,44.24
2023-05-14T09:54:07.410Z,44.55
2023-05-14T09:56:34.673Z,41.27
2023-05-14T09:59:01.010Z,42.25
2023-05-14T10:01:29.046Z,42.04
2023-05-14T10:03:56.318Z,41.71
2023-05-14T10:06:28.243Z,42.05
2023-05-14T10:09:02.718Z,42.99
2023-05-14T10:11:32.629Z,42.95
2023-05-14T10:14:09.078Z,41.94
2023-05-14T10:16:40.767Z,41.22
2023-05-14T10:19:12.004Z,43.00
2023-05-14T10:21:41.016Z,42.46
2023-05-14T10:24:08.720Z,41.56
2023-05-14T10:26:37.996Z,40.38
2023-05-14T10:29:09.235Z,41.02
2023-05-14T10:31:54.536Z,42.24
2023-05-14T10:34:33.210Z,42.89
2023-05-14T10:37:01.564Z,42.43
2023-05-14T10:39:51.645Z,45.33
2023-05-14T10:42:27.076Z,43.61
2023-05-14T10:44:55.793Z,43.05
2023-05-14T10:47:22.815Z,40.17
2023-05-14T10:49:49.518Z,41.64
2023-05-14T10:52:18.108Z,42.59
2023-05-14T10:54:54.005Z,41.86
2023-05-14T10:57:22.716Z,43.02
2023-05-14T10:59:51.462Z,42.63
2023-05-14T11:02:38.029Z,42.67
2023-05-14T11:05:09.674Z,41.15
2023-05-14T11:07:38.076Z,40.99
2023-05-14T11:10:09.925Z,41.13
2023-05-14T11:12:38.500Z,43.09
2023-05-14T11:15:09.833Z,44.15
2023-05-14T11:17:37.514Z,44.37
2023-05-14T11:20:04.671Z,44.01
2023-05-14T11:22:31.083Z,45.34
2023-05-14T11:24:57.464Z,45.48
2023-05-14T11:27:24.026Z,48.07
2023-05-14T11:29:50.876Z,45.93
2023-05-14T11:32:18.093Z,46.89
2023-05-14T11:34:45.527Z,46.77
2023-05-14T11:37:13.008Z,48.71
2023-05-14T11:39:39.993Z,48.34
2023-05-14T11:42:11.518Z,47.31
2023-05-14T11:44:38.700Z,47.13
2023-05-14T11:47:05.348Z,46.20
2023-05-14T11:49:31.791Z,47.84
2023-05-14T11:51:59.602Z,46.79
2023-05-14T11:54:29.774Z,44.25
2023-05-14T11:56:57.129Z,45.37
2023-05-14T11:59:31.885Z,43.78
2023-05-14T12:01:58.624Z,45.25
2023-05-14T12:04:25.615Z,46.29
2023-05-14T12:06:52.946Z,44.09
2023-05-14T12:09:20.434Z,43.63
2023-05-14T12:11:48.026Z,43.10
2023-05-14T12:14:19.781Z,43.12
2023-05-14T12:16:47.463Z,44.85
2023-05-14T12:19:19.380Z,43.59
2023-05-14T12:21:48.176Z,42.66
2023-05-14T12:24:17.954Z,42.73
2023-05-14T12:26:48.004Z,43.63
2023-05-14T12:29:15.585Z,47.55
2023-05-14T12:31:43.651Z,50.04
2023-05-14T12:34:09.960Z,52.70
2023-05-14T12:36:36.305Z,53.00
2023-05-14T12:39:02.826Z,53.82
2023-05-14T12:41:30.571Z,52.73
2023-05-14T12:43:57.754Z,54.15
2023-05-14T12:46:26.027Z,51.29
2023-05-14T12:48:53.512Z,52.21
2023-05-14T12:51:20.400Z,49.34
2023-05-14T12:53:46.987Z,49.38
2023-05-14T12:56:13.665Z,47.03
2023-05-14T12:58:40.218Z,45.92
2023-05-14T13:01:06.653Z,45.88
2023-05-14T13:03:33.158Z,44.49
2023-05-14T13:05:59.534Z,42.82
2023-05-14T13:08:26.224Z,43.57
2023-05-14T13:10:53.881Z,45.16
2023-05-14T13:13:20.244Z,42.75
2023-05-14T13:15:46.723Z,42.22
2023-05-14T13:18:17.478Z,41.29
2023-05-14T13:20:45.930Z,43.17
2023-05-14T13:23:12.233Z,43.43
2023-05-14T13:25:38.573Z,45.12
2023-05-14T13:28:05.016Z,44.58
2023-05-14T13:30:31.455Z,44.92
2023-05-14T13:32:59.887Z,45.07
2023-05-14T13:35:26.415Z,44.62
2023-05-14T13:37:52.897Z,42.17
2023-05-14T13:40:19.284Z,45.23
2023-05-14T13:42:45.591Z,44.97
2023-05-14T13:45:12.552Z,42.86
2023-05-14T13:47:40.242Z,43.34
2023-05-14T13:50:07.609Z,44.36
2023-05-14T13:52:33.934Z,44.80
2023-05-14T13:55:00.273Z,44.19
2023-05-14T13:57:26.579Z,45.91
2023-05-14T13:59:52.949Z,45.94
2023-05-14T14:02:19.240Z,45.08
2023-05-14T14:04:45.587Z,45.85
2023-05-14T14:07:11.928Z,46.46
2023-05-14T14:09:38.257Z,47.04
2023-05-14T14:12:05.127Z,47.38
2023-05-14T14:14:31.579Z,45.91
2023-05-14T14:16:57.921Z,45.96
2023-05-14T14:19:24.276Z,44.70
2023-05-14T14:24:21.831Z,46.58
2023-05-14T14:26:48.157Z,45.45
2023-05-14T14:29:14.522Z,44.38
2023-05-14T14:31:40.937Z,44.10
2023-05-14T14:34:07.269Z,44.21
2023-05-14T14:36:33.588Z,44.09
2023-05-14T14:38:59.918Z,45.24
2023-05-14T14:41:26.236Z,45.40
2023-05-14T14:43:52.564Z,43.81
2023-05-14T14:46:18.950Z,44.35
2023-05-14T14:48:45.277Z,41.98
2023-05-14T14:51:11.595Z,40.09
2023-05-14T14:53:37.917Z,40.51
2023-05-14T14:56:04.738Z,39.81
2023-05-14T14:58:31.197Z,39.21
2023-05-14T15:00:58.239Z,39.79
2023-05-14T15:03:25.112Z,37.38
2023-05-14T15:05:51.893Z,38.84
2023-05-14T15:08:18.216Z,38.48
2023-05-14T15:10:45.103Z,39.06
2023-05-14T15:13:12.562Z,39.34
2023-05-14T15:15:38.846Z,41.02
2023-05-14T15:18:05.317Z,39.21
2023-05-14T15:20:31.670Z,39.30
2023-05-14T15:22:58.037Z,37.94
2023-05-14T15:25:25.413Z,37.46
2023-05-14T15:27:52.002Z,39.01
2023-05-14T15:30:19.570Z,40.80
2023-05-14T15:32:46.080Z,42.30
2023-05-14T15:35:12.659Z,43.68
2023-05-14T15:37:41.541Z,44.38
2023-05-14T15:40:08.743Z,44.45
2023-05-14T15:42:39.568Z,46.37
2023-05-14T15:45:06.209Z,48.15
2023-05-14T15:47:32.636Z,48.73
2023-05-14T15:49:59.517Z,48.13
2023-05-14T15:52:26.271Z,46.27
2023-05-14T15:54:52.662Z,46.07
2023-05-14T15:57:20.120Z,45.03
2023-05-14T15:59:47.220Z,44.87
2023-05-14T16:02:14.684Z,46.47
2023-05-14T16:04:41.165Z,44.02
2023-05-14T16:07:09.641Z,43.26
2023-05-14T16:09:36.703Z,45.54
2023-05-14T16:12:03.275Z,46.35
2023-05-14T16:14:29.692Z,46.26
2023-05-14T16:16:56.188Z,45.78
2023-05-14T16:19:23.514Z,46.45
2023-05-14T16:21:49.944Z,48.05
2023-05-14T16:24:18.443Z,48.21
2023-05-14T16:26:45.293Z,48.50
2023-05-14T16:29:11.924Z,48.21
2023-05-14T16:31:38.437Z,48.49
2023-05-14T16:34:04.835Z,49.90
2023-05-14T16:36:31.223Z,50.44
2023-05-14T16:39:07.281Z,51.15
2023-05-14T16:41:35.404Z,51.53
2023-05-14T16:44:01.842Z,52.75
2023-05-14T16:46:28.539Z,52.78
2023-05-14T16:48:54.997Z,53.78
2023-05-14T16:51:21.305Z,53.83
2023-05-14T16:53:47.620Z,52.87
2023-05-14T16:56:14.018Z,52.49
2023-05-14T16:58:40.316Z,52.50
2023-05-14T17:01:09.417Z,51.92
2023-05-14T17:03:36.215Z,51.98
2023-05-14T17:06:02.592Z,54.17
2023-05-14T17:08:28.930Z,52.39
2023-05-14T17:10:55.245Z,53.29
2023-05-14T17:13:21.572Z,54.21
2023-05-14T17:15:47.874Z,54.08
2023-05-14T17:18:14.221Z,53.80
2023-05-14T17:20:40.576Z,54.85
2023-05-14T17:23:06.869Z,54.67
2023-05-14T17:25:33.251Z,54.35
2023-05-14T17:27:59.549Z,54.51
2023-05-14T17:30:25.940Z,55.21
2023-05-14T17:32:52.345Z,55.86
2023-05-14T17:35:18.681Z,55.75
2023-05-14T17:37:45.043Z,57.18
2023-05-14T17:40:11.869Z,56.87
2023-05-14T17:42:38.187Z,56.29
2023-05-14T17:45:04.944Z,56.46
2023-05-14T17:47:31.313Z,56.54
2023-05-14T17:49:57.697Z,60.50
2023-05-14T17:52:24.067Z,63.57
2023-05-14T17:54:50.398Z,69.13
2023-05-14T17:57:16.890Z,70.57
2023-05-14T17:59:43.236Z,71.70
2023-05-14T18:02:09.598Z,72.98
2023-05-14T18:04:35.897Z,71.57
2023-05-14T18:07:02.374Z,74.28
2023-05-14T18:09:28.696Z,79.30
2023-05-14T18:11:56.902Z,84.88
2023-05-14T18:14:23.497Z,86.97
2023-05-14T18:16:49.962Z,87.73
2023-05-14T18:19:16.352Z,88.74
2023-05-14T18:21:42.669Z,90.14
2023-05-14T18:24:09.027Z,90.72
2023-05-14T18:26:35.414Z,91.53
2023-05-14T18:29:01.799Z,91.37
2023-05-14T18:31:28.327Z,90.22
2023-05-14T18:33:54.855Z,90.59
2023-05-14T18:36:21.241Z,93.35
2023-05-14T18:38:47.615Z,93.72
2023-05-14T18:41:14.007Z,91.79
2023-05-14T18:43:40.300Z,86.81
2023-05-14T18:46:06.647Z,81.38
2023-05-14T18:48:32.979Z,82.00
2023-05-14T18:51:00.710Z,81.18
2023-05-14T18:53:27.027Z,84.39
2023-05-14T18:55:53.320Z,87.17
2023-05-14T18:58:19.674Z,89.01
2023-05-14T19:00:46.304Z,90.99
2023-05-14T19:03:12.677Z,92.70
2023-05-14T19:05:39.130Z,94.23
2023-05-14T19:08:06.359Z,94.43
2023-05-14T19:10:32.713Z,94.02
2023-05-14T19:12:59.172Z,93.72
2023-05-14T19:15:25.826Z,93.54
2023-05-14T19:17:52.600Z,92.17
2023-05-14T19:20:19.236Z,87.14
2023-05-14T19:22:45.600Z,89.62
2023-05-14T19:25:11.991Z,90.92
2023-05-14T19:27:38.449Z,91.02
2023-05-14T19:30:05.426Z,92.13
2023-05-14T19:32:31.783Z,93.18
2023-05-14T19:34:58.134Z,94.87
2023-05-14T19:37:24.453Z,96.21
2023-05-14T19:39:50.826Z,96.04
2023-05-14T19:42:17.234Z,95.83
2023-05-14T19:44:43.544Z,96.22
2023-05-14T19:47:10.027Z,96.85
2023-05-14T19:49:36.524Z,96.37
2023-05-14T19:52:02.866Z,96.83
2023-05-14T19:54:29.185Z,97.86
2023-05-14T19:56:55.512Z,99.24
2023-05-14T19:59:21.844Z,100.00
2023-05-14T20:01:48.158Z,100.00
2023-05-14T20:04:14.504Z,100.00
2023-05-14T20:06:40.849Z,96.45
2023-05-14T20:09:07.149Z,95.12
2023-05-14T20:11:33.476Z,95.36
2023-05-14T20:13:59.775Z,95.62
2023-05-14T20:16:26.182Z,97.00
2023-05-14T20:18:53.394Z,97.64
2023-05-14T20:21:19.768Z,98.26
2023-05-14T20:23:46.132Z,99.05
2023-05-14T20:26:12.452Z,99.62
2023-05-14T20:28:38.797Z,100.00
2023-05-14T20:31:07.987Z,100.00
2023-05-14T20:33:34.604Z,100.00
2023-05-14T20:36:01.046Z,100.00
2023-05-14T20:38:27.364Z,100.00
2023-05-14T20:40:53.653Z,100.00
2023-05-14T20:43:19.966Z,100.00
2023-05-14T20:45:46.296Z,100.00
2023-05-14T20:48:12.720Z,100.00
2023-05-14T20:50:42.399Z,100.00
2023-05-14T20:53:08.710Z,100.00
2023-05-14T20:55:35.037Z,100.00
2023-05-14T20:58:01.360Z,100.00
2023-05-14T21:00:27.756Z,100.00
2023-05-14T21:02:54.157Z,100.00
2023-05-14T21:05:20.542Z,100.00
2023-05-14T21:07:46.877Z,100.00
2023-05-14T21:10:13.326Z,100.00
2023-05-14T21:12:39.659Z,100.00
2023-05-14T21:15:06.512Z,100.00
2023-05-14T21:17:32.857Z,100.00
2023-05-14T21:19:59.196Z,100.00
2023-05-14T21:22:27.185Z,100.00
2023-05-14T21:24:55.275Z,100.00
2023-05-14T21:27:22.065Z,100.00
2023-05-14T21:29:48.387Z,100.00
2023-05-14T21:32:14.706Z,100.00
2023-05-14T21:34:41.046Z,100.00
2023-05-14T21:37:07.418Z,100.00
2023-05-14T21:39:33.810Z,100.00
2023-05-14T21:42:00.126Z,100.00
2023-05-14T21:44:26.449Z,100.00
2023-05-14T21:46:52.775Z,100.00
2023-05-14T21:49:19.099Z,100.00
2023-05-14T21:51:45.434Z,100.00
2023-05-14T21:54:11.754Z,100.00
2023-05-14T21:56:38.169Z,100.00
2023-05-14T21:59:04.461Z,100.00
2023-05-14T22:01:30.980Z,100.00
2023-05-14T22:03:58.183Z,100.00
2023-05-14T22:06:24.693Z,100.00
2023-05-14T22:08:51.052Z,100.00
2023-05-14T22:11:17.370Z,100.00
2023-05-14T22:13:43.700Z,100.00
2023-05-14T22:16:13.236Z,100.00
2023-05-14T22:18:40.536Z,100.00
2023-05-14T22:21:06.861Z,100.00
2023-05-14T22:23:33.222Z,100.00
2023-05-14T22:25:59.574Z,100.00
2023-05-14T22:28:26.037Z,100.00
2023-05-14T22:30:52.459Z,100.00
2023-05-14T22:33:18.773Z,100.00
2023-05-14T22:35:45.090Z,100.00
2023-05-14T22:38:12.405Z,100.00
2023-05-14T22:40:38.756Z,100.00
2023-05-14T22:43:05.077Z,100.00
2023-05-14T22:45:31.412Z,100.00
2023-05-14T22:47:58.327Z,100.00
2023-05-14T22:50:24.663Z,100.00
2023-05-14T22:52:50.973Z,100.00
2023-05-14T22:55:17.403Z,100.00
2023-05-14T22:57:43.809Z,100.00
2023-05-14T23:00:10.744Z,100.00
2023-05-14T23:02:37.085Z,100.00
2023-05-14T23:05:03.697Z,100.00
2023-05-14T23:07:30.015Z,100.00
2023-05-14T23:09:56.428Z,100.00
2023-05-14T23:12:22.769Z,100.00
2023-05-14T23:14:49.076Z,100.00
2023-05-14T23:17:17.085Z,100.00
2023-05-14T23:19:43.430Z,100.00
2023-05-14T23:22:09.771Z,100.00
2023-05-14T23:24:36.103Z,100.00
2023-05-14T23:27:02.425Z,100.00
2023-05-14T23:29:28.835Z,100.00
2023-05-14T23:31:55.239Z,100.00
2023-05-14T23:34:21.596Z,100.00
2023-05-14T23:36:48.151Z,100.00
2023-05-14T23:39:14.578Z,100.00
2023-05-14T23:41:40.875Z,100.00
2023-05-14T23:44:07.236Z,100.00
2023-05-14T23:46:33.672Z,100.00
2023-05-14T23:49:01.105Z,100.00
2023-05-14T23:51:27.523Z,100.00
2023-05-14T23:53:53.920Z,100.00
2023-05-14T23:56:20.287Z,100.00
2023-05-14T23:58:46.611Z,100.00
